Port Alberni, Canada
Current Conditions -  °F | °C
As of 9:00 AM on Saturday 25 Oct 2014 (Local Time) from CYQQ Reporting Station
Light Rain Light Rain  
Wind Chill: 41°   Ceiling: 3500
Heat Index: 45°   Visibility: 8mi
Dew Point: 43°   Wind: 6mph
Humidity: 93%   Direction: 280°W
Pressure: 29.5"   Gusts: NA
Location:  49.23°N, 124.81°W
Report Text: CYQQ 251600Z 28005KT 8SM -RA FEW005 OVC035 07/06 A2950 RMK SF2SC6 SLP991
Loading
Personal Weather Stations






























Interactive Weather Map
Tropical Storm Tracking
New forecast layout! Learn more

10-Day Weather Forecast

Advertisements
Track Severe Weather on mobile